sensor_id;sensor_type;location;lat;lon;timestamp;temperature;humidity
51637;DHT22;37713;53.254;6.460;2023-06-24T00:01:16;16.50;99.90
51637;DHT22;37713;53.254;6.460;2023-06-24T00:03:41;16.50;99.90
51637;DHT22;37713;53.254;6.460;2023-06-24T00:06:09;16.40;99.90
51637;DHT22;37713;53.254;6.460;2023-06-24T00:08:35;16.40;99.90
51637;DHT22;37713;53.254;6.460;2023-06-24T00:11:02;16.40;99.90
51637;DHT22;37713;53.254;6.460;2023-06-24T00:13:28;16.40;99.90
51637;DHT22;37713;53.254;6.460;2023-06-24T00:15:55;16.30;99.90
51637;DHT22;37713;53.254;6.460;2023-06-24T00:18:20;16.30;99.90
51637;DHT22;37713;53.254;6.460;2023-06-24T00:20:50;16.30;99.90
51637;DHT22;37713;53.254;6.460;2023-06-24T00:23:19;16.20;99.90
51637;DHT22;37713;53.254;6.460;2023-06-24T00:25:46;16.20;99.90
51637;DHT22;37713;53.254;6.460;2023-06-24T00:28:12;16.20;99.90
51637;DHT22;37713;53.254;6.460;2023-06-24T00:30:37;16.20;99.90
51637;DHT22;37713;53.254;6.460;2023-06-24T00:33:03;16.20;99.90
51637;DHT22;37713;53.254;6.460;2023-06-24T00:35:29;16.20;99.90
51637;DHT22;37713;53.254;6.460;2023-06-24T00:37:54;16.20;99.90
51637;DHT22;37713;53.254;6.460;2023-06-24T00:40:24;16.20;99.90
51637;DHT22;37713;53.254;6.460;2023-06-24T00:42:50;16.20;99.90
51637;DHT22;37713;53.254;6.460;2023-06-24T00:45:15;16.10;99.90
51637;DHT22;37713;53.254;6.460;2023-06-24T00:47:43;16.10;99.90
51637;DHT22;37713;53.254;6.460;2023-06-24T00:50:10;16.10;99.90
51637;DHT22;37713;53.254;6.460;2023-06-24T00:52:37;16.10;99.90
51637;DHT22;37713;53.254;6.460;2023-06-24T00:55:08;16.10;99.90
51637;DHT22;37713;53.254;6.460;2023-06-24T00:57:35;16.00;99.90
51637;DHT22;37713;53.254;6.460;2023-06-24T01:00:03;16.10;99.90
51637;DHT22;37713;53.254;6.460;2023-06-24T01:02:35;16.00;99.90
51637;DHT22;37713;53.254;6.460;2023-06-24T01:05:02;16.00;99.90
51637;DHT22;37713;53.254;6.460;2023-06-24T01:07:30;16.00;99.90
51637;DHT22;37713;53.254;6.460;2023-06-24T01:09:57;16.00;99.90
51637;DHT22;37713;53.254;6.460;2023-06-24T01:12:23;15.90;99.90
51637;DHT22;37713;53.254;6.460;2023-06-24T01:14:49;15.90;99.90
51637;DHT22;37713;53.254;6.460;2023-06-24T01:17:15;15.90;99.90
51637;DHT22;37713;53.254;6.460;2023-06-24T01:19:56;15.90;99.90
51637;DHT22;37713;53.254;6.460;2023-06-24T01:23:11;15.80;99.90
51637;DHT22;37713;53.254;6.460;2023-06-24T01:26:14;15.80;99.90
51637;DHT22;37713;53.254;6.460;2023-06-24T01:34:25;15.80;99.90
51637;DHT22;37713;53.254;6.460;2023-06-24T01:39:34;15.80;99.90
51637;DHT22;37713;53.254;6.460;2023-06-24T01:42:11;15.80;99.90
51637;DHT22;37713;53.254;6.460;2023-06-24T01:44:40;15.80;99.90
51637;DHT22;37713;53.254;6.460;2023-06-24T01:47:08;15.80;99.90
51637;DHT22;37713;53.254;6.460;2023-06-24T01:49:39;15.70;99.90
51637;DHT22;37713;53.254;6.460;2023-06-24T01:52:08;15.80;99.90
51637;DHT22;37713;53.254;6.460;2023-06-24T01:54:36;15.80;99.90
51637;DHT22;37713;53.254;6.460;2023-06-24T01:57:06;15.70;99.90
51637;DHT22;37713;53.254;6.460;2023-06-24T01:59:34;15.80;99.90
51637;DHT22;37713;53.254;6.460;2023-06-24T02:02:02;15.70;99.90
51637;DHT22;37713;53.254;6.460;2023-06-24T02:04:29;15.70;99.90
51637;DHT22;37713;53.254;6.460;2023-06-24T02:06:59;15.70;99.90
51637;DHT22;37713;53.254;6.460;2023-06-24T02:09:28;15.70;99.90
51637;DHT22;37713;53.254;6.460;2023-06-24T02:12:01;15.70;99.90
51637;DHT22;37713;53.254;6.460;2023-06-24T02:14:29;15.60;99.90
51637;DHT22;37713;53.254;6.460;2023-06-24T02:17:00;15.60;99.90
51637;DHT22;37713;53.254;6.460;2023-06-24T02:19:30;15.60;99.90
51637;DHT22;37713;53.254;6.460;2023-06-24T02:21:56;15.60;99.90
51637;DHT22;37713;53.254;6.460;2023-06-24T02:24:23;15.60;99.90
51637;DHT22;37713;53.254;6.460;2023-06-24T02:26:50;15.60;99.90
51637;DHT22;37713;53.254;6.460;2023-06-24T02:29:17;15.60;99.90
51637;DHT22;37713;53.254;6.460;2023-06-24T02:31:43;15.50;99.90
51637;DHT22;37713;53.254;6.460;2023-06-24T02:34:09;15.60;99.90
51637;DHT22;37713;53.254;6.460;2023-06-24T02:36:35;15.60;99.90
51637;DHT22;37713;53.254;6.460;2023-06-24T02:39:01;15.50;99.90
51637;DHT22;37713;53.254;6.460;2023-06-24T02:41:27;15.50;99.90
51637;DHT22;37713;53.254;6.460;2023-06-24T02:43:53;15.50;99.90
51637;DHT22;37713;53.254;6.460;2023-06-24T02:46:20;15.50;99.90
51637;DHT22;37713;53.254;6.460;2023-06-24T02:48:46;15.50;99.90
51637;DHT22;37713;53.254;6.460;2023-06-24T02:51:13;15.50;99.90
51637;DHT22;37713;53.254;6.460;2023-06-24T02:53:40;15.50;99.90
51637;DHT22;37713;53.254;6.460;2023-06-24T02:56:08;15.50;99.90
51637;DHT22;37713;53.254;6.460;2023-06-24T02:58:39;15.40;99.90
51637;DHT22;37713;53.254;6.460;2023-06-24T03:01:05;15.50;99.90
51637;DHT22;37713;53.254;6.460;2023-06-24T03:03:35;15.50;99.90
51637;DHT22;37713;53.254;6.460;2023-06-24T03:06:01;15.50;99.90
51637;DHT22;37713;53.254;6.460;2023-06-24T03:08:28;15.50;99.90
51637;DHT22;37713;53.254;6.460;2023-06-24T03:10:55;15.40;99.90
51637;DHT22;37713;53.254;6.460;2023-06-24T03:13:21;15.40;99.90
51637;DHT22;37713;53.254;6.460;2023-06-24T03:15:47;15.40;99.90
51637;DHT22;37713;53.254;6.460;2023-06-24T03:18:13;15.40;99.90
51637;DHT22;37713;53.254;6.460;2023-06-24T03:20:39;15.40;99.90
51637;DHT22;37713;53.254;6.460;2023-06-24T03:23:06;15.30;99.90
51637;DHT22;37713;53.254;6.460;2023-06-24T03:25:32;15.30;99.90
51637;DHT22;37713;53.254;6.460;2023-06-24T03:27:59;15.30;99.90
51637;DHT22;37713;53.254;6.460;2023-06-24T03:30:27;15.30;99.90
51637;DHT22;37713;53.254;6.460;2023-06-24T03:32:52;15.30;99.90
51637;DHT22;37713;53.254;6.460;2023-06-24T03:35:18;15.30;99.90
51637;DHT22;37713;53.254;6.460;2023-06-24T03:37:44;15.30;99.90
51637;DHT22;37713;53.254;6.460;2023-06-24T03:40:10;15.30;99.90
51637;DHT22;37713;53.254;6.460;2023-06-24T03:42:36;15.30;99.90
51637;DHT22;37713;53.254;6.460;2023-06-24T03:45:03;15.40;99.90
51637;DHT22;37713;53.254;6.460;2023-06-24T03:47:29;15.40;99.90
51637;DHT22;37713;53.254;6.460;2023-06-24T03:49:54;15.40;99.90
51637;DHT22;37713;53.254;6.460;2023-06-24T03:52:20;15.40;99.90
51637;DHT22;37713;53.254;6.460;2023-06-24T03:54:46;15.40;99.90
51637;DHT22;37713;53.254;6.460;2023-06-24T03:57:12;15.40;99.90
51637;DHT22;37713;53.254;6.460;2023-06-24T03:59:38;15.40;99.90
51637;DHT22;37713;53.254;6.460;2023-06-24T04:02:05;15.40;99.90
51637;DHT22;37713;53.254;6.460;2023-06-24T04:04:34;15.50;99.90
51637;DHT22;37713;53.254;6.460;2023-06-24T04:07:00;15.40;99.90
51637;DHT22;37713;53.254;6.460;2023-06-24T04:09:26;15.50;99.90
51637;DHT22;37713;53.254;6.460;2023-06-24T04:11:51;15.50;99.90
51637;DHT22;37713;53.254;6.460;2023-06-24T04:14:17;15.60;99.90
51637;DHT22;37713;53.254;6.460;2023-06-24T04:16:43;15.60;99.90
51637;DHT22;37713;53.254;6.460;2023-06-24T04:19:09;15.70;99.90
51637;DHT22;37713;53.254;6.460;2023-06-24T04:21:35;15.70;99.90
51637;DHT22;37713;53.254;6.460;2023-06-24T04:24:01;15.70;99.90
51637;DHT22;37713;53.254;6.460;2023-06-24T04:26:26;15.80;99.90
51637;DHT22;37713;53.254;6.460;2023-06-24T04:28:52;15.80;99.90
51637;DHT22;37713;53.254;6.460;2023-06-24T04:31:18;15.80;99.90
51637;DHT22;37713;53.254;6.460;2023-06-24T04:33:43;15.90;99.90
51637;DHT22;37713;53.254;6.460;2023-06-24T04:36:09;15.90;99.90
51637;DHT22;37713;53.254;6.460;2023-06-24T04:38:35;15.90;99.90
51637;DHT22;37713;53.254;6.460;2023-06-24T04:41:01;16.00;99.90
51637;DHT22;37713;53.254;6.460;2023-06-24T04:43:27;16.00;99.90
51637;DHT22;37713;53.254;6.460;2023-06-24T04:45:55;16.00;99.90
51637;DHT22;37713;53.254;6.460;2023-06-24T04:48:26;16.00;99.90
51637;DHT22;37713;53.254;6.460;2023-06-24T04:50:52;16.10;99.90
51637;DHT22;37713;53.254;6.460;2023-06-24T04:53:23;16.10;99.90
51637;DHT22;37713;53.254;6.460;2023-06-24T04:55:48;16.10;99.90
51637;DHT22;37713;53.254;6.460;2023-06-24T04:58:14;16.20;99.90
51637;DHT22;37713;53.254;6.460;2023-06-24T05:00:40;16.20;99.90
51637;DHT22;37713;53.254;6.460;2023-06-24T05:03:08;16.30;99.90
51637;DHT22;37713;53.254;6.460;2023-06-24T05:05:34;16.20;99.90
51637;DHT22;37713;53.254;6.460;2023-06-24T05:08:00;16.30;99.90
51637;DHT22;37713;53.254;6.460;2023-06-24T05:10:26;16.30;99.90
51637;DHT22;37713;53.254;6.460;2023-06-24T05:12:52;16.30;99.90
51637;DHT22;37713;53.254;6.460;2023-06-24T05:15:18;16.40;99.90
51637;DHT22;37713;53.254;6.460;2023-06-24T05:17:43;16.40;99.90
51637;DHT22;37713;53.254;6.460;2023-06-24T05:20:10;16.50;99.90
51637;DHT22;37713;53.254;6.460;2023-06-24T05:22:36;16.50;99.90
51637;DHT22;37713;53.254;6.460;2023-06-24T05:25:02;16.50;99.90
51637;DHT22;37713;53.254;6.460;2023-06-24T05:27:28;16.60;99.90
51637;DHT22;37713;53.254;6.460;2023-06-24T05:29:54;16.70;99.90
51637;DHT22;37713;53.254;6.460;2023-06-24T05:32:19;16.80;99.90
51637;DHT22;37713;53.254;6.460;2023-06-24T05:34:46;16.80;99.90
51637;DHT22;37713;53.254;6.460;2023-06-24T05:37:12;16.90;99.90
51637;DHT22;37713;53.254;6.460;2023-06-24T05:39:38;17.00;99.90
51637;DHT22;37713;53.254;6.460;2023-06-24T05:42:04;17.10;99.90
51637;DHT22;37713;53.254;6.460;2023-06-24T05:44:29;17.20;99.90
51637;DHT22;37713;53.254;6.460;2023-06-24T05:46:55;17.30;99.90
51637;DHT22;37713;53.254;6.460;2023-06-24T05:49:21;17.40;99.90
51637;DHT22;37713;53.254;6.460;2023-06-24T05:51:47;17.50;99.90
51637;DHT22;37713;53.254;6.460;2023-06-24T05:54:13;17.60;99.90
51637;DHT22;37713;53.254;6.460;2023-06-24T05:56:38;17.80;99.90
51637;DHT22;37713;53.254;6.460;2023-06-24T05:59:05;17.90;99.90
51637;DHT22;37713;53.254;6.460;2023-06-24T06:01:30;18.00;99.90
51637;DHT22;37713;53.254;6.460;2023-06-24T06:03:56;18.10;99.90
51637;DHT22;37713;53.254;6.460;2023-06-24T06:06:22;18.20;99.90
51637;DHT22;37713;53.254;6.460;2023-06-24T06:08:48;18.40;99.90
51637;DHT22;37713;53.254;6.460;2023-06-24T06:11:14;18.70;99.90
51637;DHT22;37713;53.254;6.460;2023-06-24T06:13:39;19.00;99.90
51637;DHT22;37713;53.254;6.460;2023-06-24T06:16:05;19.20;99.90
51637;DHT22;37713;53.254;6.460;2023-06-24T06:18:31;19.40;99.90
51637;DHT22;37713;53.254;6.460;2023-06-24T06:20:57;19.60;99.90
51637;DHT22;37713;53.254;6.460;2023-06-24T06:23:23;19.70;99.90
51637;DHT22;37713;53.254;6.460;2023-06-24T06:25:48;19.80;99.90
51637;DHT22;37713;53.254;6.460;2023-06-24T06:28:14;19.90;99.90
51637;DHT22;37713;53.254;6.460;2023-06-24T06:30:40;20.00;99.90
51637;DHT22;37713;53.254;6.460;2023-06-24T06:33:06;20.10;99.90
51637;DHT22;37713;53.254;6.460;2023-06-24T06:35:31;20.20;99.90
51637;DHT22;37713;53.254;6.460;2023-06-24T06:37:57;20.30;99.90
51637;DHT22;37713;53.254;6.460;2023-06-24T06:40:23;20.30;99.90
51637;DHT22;37713;53.254;6.460;2023-06-24T06:42:50;20.40;99.90
51637;DHT22;37713;53.254;6.460;2023-06-24T06:45:16;20.40;99.90
51637;DHT22;37713;53.254;6.460;2023-06-24T06:47:41;20.50;99.90
51637;DHT22;37713;53.254;6.460;2023-06-24T06:50:07;20.60;99.90
51637;DHT22;37713;53.254;6.460;2023-06-24T06:52:34;20.60;99.90
51637;DHT22;37713;53.254;6.460;2023-06-24T06:55:00;20.70;99.90
51637;DHT22;37713;53.254;6.460;2023-06-24T06:57:26;20.70;99.90
51637;DHT22;37713;53.254;6.460;2023-06-24T06:59:52;20.70;99.90
51637;DHT22;37713;53.254;6.460;2023-06-24T07:02:18;20.90;99.90
51637;DHT22;37713;53.254;6.460;2023-06-24T07:04:44;21.00;99.90
51637;DHT22;37713;53.254;6.460;2023-06-24T07:07:10;21.00;99.90
51637;DHT22;37713;53.254;6.460;2023-06-24T07:09:37;21.20;99.90
51637;DHT22;37713;53.254;6.460;2023-06-24T07:12:03;21.30;99.90
51637;DHT22;37713;53.254;6.460;2023-06-24T07:14:29;21.50;99.90
51637;DHT22;37713;53.254;6.460;2023-06-24T07:16:55;21.60;99.90
51637;DHT22;37713;53.254;6.460;2023-06-24T07:19:20;21.70;99.90
51637;DHT22;37713;53.254;6.460;2023-06-24T07:21:46;21.90;99.90
51637;DHT22;37713;53.254;6.460;2023-06-24T07:24:12;22.00;99.90
51637;DHT22;37713;53.254;6.460;2023-06-24T07:26:38;22.20;99.90
51637;DHT22;37713;53.254;6.460;2023-06-24T07:29:06;22.40;99.90
51637;DHT22;37713;53.254;6.460;2023-06-24T07:31:33;22.90;99.90
51637;DHT22;37713;53.254;6.460;2023-06-24T07:33:58;23.20;99.90
51637;DHT22;37713;53.254;6.460;2023-06-24T07:36:24;23.50;99.90
51637;DHT22;37713;53.254;6.460;2023-06-24T07:38:50;23.80;99.90
51637;DHT22;37713;53.254;6.460;2023-06-24T07:41:16;24.20;99.90
51637;DHT22;37713;53.254;6.460;2023-06-24T07:43:41;24.60;99.90
51637;DHT22;37713;53.254;6.460;2023-06-24T07:46:07;24.70;99.90
51637;DHT22;37713;53.254;6.460;2023-06-24T07:48:33;24.80;99.90
51637;DHT22;37713;53.254;6.460;2023-06-24T07:50:59;24.80;99.90
51637;DHT22;37713;53.254;6.460;2023-06-24T07:53:24;24.90;99.90
51637;DHT22;37713;53.254;6.460;2023-06-24T07:55:52;24.90;99.90
51637;DHT22;37713;53.254;6.460;2023-06-24T07:58:18;24.90;99.90
51637;DHT22;37713;53.254;6.460;2023-06-24T08:00:45;24.90;99.90
51637;DHT22;37713;53.254;6.460;2023-06-24T08:03:12;24.90;99.90
51637;DHT22;37713;53.254;6.460;2023-06-24T08:05:38;24.80;99.90
51637;DHT22;37713;53.254;6.460;2023-06-24T08:08:06;24.80;99.90
51637;DHT22;37713;53.254;6.460;2023-06-24T08:10:32;24.90;99.90
51637;DHT22;37713;53.254;6.460;2023-06-24T08:12:58;24.90;99.90
51637;DHT22;37713;53.254;6.460;2023-06-24T08:15:24;25.00;99.90
51637;DHT22;37713;53.254;6.460;2023-06-24T08:17:53;25.00;99.90
51637;DHT22;37713;53.254;6.460;2023-06-24T08:20:23;25.00;99.90
51637;DHT22;37713;53.254;6.460;2023-06-24T08:22:49;25.00;99.90
51637;DHT22;37713;53.254;6.460;2023-06-24T08:25:15;25.00;99.90
51637;DHT22;37713;53.254;6.460;2023-06-24T08:27:41;25.10;99.90
51637;DHT22;37713;53.254;6.460;2023-06-24T08:30:08;25.20;99.90
51637;DHT22;37713;53.254;6.460;2023-06-24T08:32:35;25.50;99.90
51637;DHT22;37713;53.254;6.460;2023-06-24T08:35:00;25.50;99.90
51637;DHT22;37713;53.254;6.460;2023-06-24T08:37:26;25.50;99.90
51637;DHT22;37713;53.254;6.460;2023-06-24T08:39:53;25.50;99.90
51637;DHT22;37713;53.254;6.460;2023-06-24T08:42:18;25.40;99.90
51637;DHT22;37713;53.254;6.460;2023-06-24T08:44:44;25.50;99.90
51637;DHT22;37713;53.254;6.460;2023-06-24T08:47:11;25.60;99.90
51637;DHT22;37713;53.254;6.460;2023-06-24T08:49:47;25.80;99.90
51637;DHT22;37713;53.254;6.460;2023-06-24T08:52:19;25.90;99.90
51637;DHT22;37713;53.254;6.460;2023-06-24T08:54:51;26.00;99.90
51637;DHT22;37713;53.254;6.460;2023-06-24T08:57:17;26.20;99.90
51637;DHT22;37713;53.254;6.460;2023-06-24T08:59:44;26.50;99.90
51637;DHT22;37713;53.254;6.460;2023-06-24T09:02:11;26.50;99.90
51637;DHT22;37713;53.254;6.460;2023-06-24T09:04:37;26.50;99.90
51637;DHT22;37713;53.254;6.460;2023-06-24T09:07:03;26.70;99.90
51637;DHT22;37713;53.254;6.460;2023-06-24T09:09:29;26.60;99.90
51637;DHT22;37713;53.254;6.460;2023-06-24T09:11:56;26.50;99.90
51637;DHT22;37713;53.254;6.460;2023-06-24T09:14:24;26.40;99.90
51637;DHT22;37713;53.254;6.460;2023-06-24T09:16:54;26.40;99.90
51637;DHT22;37713;53.254;6.460;2023-06-24T09:19:25;26.30;99.90
51637;DHT22;37713;53.254;6.460;2023-06-24T09:21:53;26.30;99.90
51637;DHT22;37713;53.254;6.460;2023-06-24T09:24:19;26.40;99.90
51637;DHT22;37713;53.254;6.460;2023-06-24T09:26:45;26.50;99.90
51637;DHT22;37713;53.254;6.460;2023-06-24T09:29:12;26.60;99.90
51637;DHT22;37713;53.254;6.460;2023-06-24T09:31:47;26.60;99.90
51637;DHT22;37713;53.254;6.460;2023-06-24T09:34:13;26.40;99.90
51637;DHT22;37713;53.254;6.460;2023-06-24T09:36:44;26.40;99.90
51637;DHT22;37713;53.254;6.460;2023-06-24T09:39:10;26.40;99.90
51637;DHT22;37713;53.254;6.460;2023-06-24T09:41:40;26.50;99.90
51637;DHT22;37713;53.254;6.460;2023-06-24T09:44:08;26.60;99.90
51637;DHT22;37713;53.254;6.460;2023-06-24T09:46:36;26.60;99.90
51637;DHT22;37713;53.254;6.460;2023-06-24T09:49:06;26.70;99.90
51637;DHT22;37713;53.254;6.460;2023-06-24T09:51:38;26.80;99.90
51637;DHT22;37713;53.254;6.460;2023-06-24T09:54:09;26.90;99.90
51637;DHT22;37713;53.254;6.460;2023-06-24T09:56:36;26.90;99.90
51637;DHT22;37713;53.254;6.460;2023-06-24T09:59:05;27.00;99.90
51637;DHT22;37713;53.254;6.460;2023-06-24T10:01:38;26.90;99.90
51637;DHT22;37713;53.254;6.460;2023-06-24T10:04:05;26.90;99.90
51637;DHT22;37713;53.254;6.460;2023-06-24T10:06:33;27.00;99.90
51637;DHT22;37713;53.254;6.460;2023-06-24T10:09:00;27.00;99.90
51637;DHT22;37713;53.254;6.460;2023-06-24T10:11:25;27.00;99.90
51637;DHT22;37713;53.254;6.460;2023-06-24T10:13:52;27.00;99.90
51637;DHT22;37713;53.254;6.460;2023-06-24T10:16:18;27.10;99.90
51637;DHT22;37713;53.254;6.460;2023-06-24T10:18:44;27.20;99.90
51637;DHT22;37713;53.254;6.460;2023-06-24T10:21:11;27.20;99.90
51637;DHT22;37713;53.254;6.460;2023-06-24T10:26:11;27.30;99.90
51637;DHT22;37713;53.254;6.460;2023-06-24T10:34:27;27.30;99.90
51637;DHT22;37713;53.254;6.460;2023-06-24T10:36:54;27.30;99.90
51637;DHT22;37713;53.254;6.460;2023-06-24T10:42:38;27.00;99.90
51637;DHT22;37713;53.254;6.460;2023-06-24T10:47:40;27.20;99.90
51637;DHT22;37713;53.254;6.460;2023-06-24T10:50:08;27.30;99.90
51637;DHT22;37713;53.254;6.460;2023-06-24T10:52:45;27.40;99.90
51637;DHT22;37713;53.254;6.460;2023-06-24T10:55:13;27.40;99.90
51637;DHT22;37713;53.254;6.460;2023-06-24T10:57:40;27.30;99.90
51637;DHT22;37713;53.254;6.460;2023-06-24T11:00:07;27.40;99.90
51637;DHT22;37713;53.254;6.460;2023-06-24T11:02:33;27.50;99.90
51637;DHT22;37713;53.254;6.460;2023-06-24T11:05:01;27.70;99.90
51637;DHT22;37713;53.254;6.460;2023-06-24T11:07:30;27.70;99.90
51637;DHT22;37713;53.254;6.460;2023-06-24T11:09:58;27.70;99.90
51637;DHT22;37713;53.254;6.460;2023-06-24T11:12:26;27.50;99.90
51637;DHT22;37713;53.254;6.460;2023-06-24T11:14:55;27.40;99.90
51637;DHT22;37713;53.254;6.460;2023-06-24T11:17:21;27.20;99.90
51637;DHT22;37713;53.254;6.460;2023-06-24T11:19:47;27.10;99.90
51637;DHT22;37713;53.254;6.460;2023-06-24T11:22:15;26.90;99.90
51637;DHT22;37713;53.254;6.460;2023-06-24T11:24:41;27.00;99.90
51637;DHT22;37713;53.254;6.460;2023-06-24T11:27:07;27.10;99.90
51637;DHT22;37713;53.254;6.460;2023-06-24T11:29:33;27.40;99.90
51637;DHT22;37713;53.254;6.460;2023-06-24T11:32:01;27.60;99.90
51637;DHT22;37713;53.254;6.460;2023-06-24T11:34:28;27.80;99.90
51637;DHT22;37713;53.254;6.460;2023-06-24T11:36:54;28.00;99.90
51637;DHT22;37713;53.254;6.460;2023-06-24T11:39:27;28.10;99.90
51637;DHT22;37713;53.254;6.460;2023-06-24T11:41:53;28.30;99.90
51637;DHT22;37713;53.254;6.460;2023-06-24T11:44:25;28.30;99.90
51637;DHT22;37713;53.254;6.460;2023-06-24T11:46:52;28.00;99.90
51637;DHT22;37713;53.254;6.460;2023-06-24T11:49:18;28.10;99.90
51637;DHT22;37713;53.254;6.460;2023-06-24T11:51:54;28.20;99.90
51637;DHT22;37713;53.254;6.460;2023-06-24T11:54:20;28.20;99.90
51637;DHT22;37713;53.254;6.460;2023-06-24T11:56:53;28.20;99.90
51637;DHT22;37713;53.254;6.460;2023-06-24T11:59:21;28.30;99.90
51637;DHT22;37713;53.254;6.460;2023-06-24T12:01:55;28.30;99.90
51637;DHT22;37713;53.254;6.460;2023-06-24T12:04:22;28.20;99.90
51637;DHT22;37713;53.254;6.460;2023-06-24T12:06:52;28.20;99.90
51637;DHT22;37713;53.254;6.460;2023-06-24T12:09:18;28.30;99.90
51637;DHT22;37713;53.254;6.460;2023-06-24T12:11:43;28.40;99.90
51637;DHT22;37713;53.254;6.460;2023-06-24T12:14:09;28.60;99.90
51637;DHT22;37713;53.254;6.460;2023-06-24T12:16:35;28.70;99.90
51637;DHT22;37713;53.254;6.460;2023-06-24T12:19:02;28.90;99.90
51637;DHT22;37713;53.254;6.460;2023-06-24T12:21:28;29.00;99.40
51637;DHT22;37713;53.254;6.460;2023-06-24T12:23:54;29.10;98.60
51637;DHT22;37713;53.254;6.460;2023-06-24T12:26:19;29.10;98.70
51637;DHT22;37713;53.254;6.460;2023-06-24T12:28:45;29.10;98.60
51637;DHT22;37713;53.254;6.460;2023-06-24T12:31:11;29.10;98.60
51637;DHT22;37713;53.254;6.460;2023-06-24T12:33:37;29.20;98.40
51637;DHT22;37713;53.254;6.460;2023-06-24T12:36:03;29.20;98.50
51637;DHT22;37713;53.254;6.460;2023-06-24T12:38:29;29.30;98.40
51637;DHT22;37713;53.254;6.460;2023-06-24T12:40:55;29.20;98.20
51637;DHT22;37713;53.254;6.460;2023-06-24T12:43:22;29.10;98.20
51637;DHT22;37713;53.254;6.460;2023-06-24T12:45:47;28.90;98.40
51637;DHT22;37713;53.254;6.460;2023-06-24T12:48:13;28.70;98.70
51637;DHT22;37713;53.254;6.460;2023-06-24T12:50:40;28.60;99.10
51637;DHT22;37713;53.254;6.460;2023-06-24T12:53:05;28.60;99.30
51637;DHT22;37713;53.254;6.460;2023-06-24T12:55:31;28.50;99.20
51637;DHT22;37713;53.254;6.460;2023-06-24T12:57:57;28.50;99.50
51637;DHT22;37713;53.254;6.460;2023-06-24T13:00:24;28.60;99.80
51637;DHT22;37713;53.254;6.460;2023-06-24T13:02:50;28.80;99.50
51637;DHT22;37713;53.254;6.460;2023-06-24T13:05:17;28.90;99.10
51637;DHT22;37713;53.254;6.460;2023-06-24T13:07:43;29.00;99.40
51637;DHT22;37713;53.254;6.460;2023-06-24T13:10:10;29.10;99.30
51637;DHT22;37713;53.254;6.460;2023-06-24T13:12:36;29.10;98.80
51637;DHT22;37713;53.254;6.460;2023-06-24T13:15:03;28.90;98.60
51637;DHT22;37713;53.254;6.460;2023-06-24T13:17:31;28.70;99.30
51637;DHT22;37713;53.254;6.460;2023-06-24T13:19:58;28.50;99.30
51637;DHT22;37713;53.254;6.460;2023-06-24T13:22:24;28.30;99.70
51637;DHT22;37713;53.254;6.460;2023-06-24T13:24:50;28.20;99.70
51637;DHT22;37713;53.254;6.460;2023-06-24T13:27:16;28.10;99.90
51637;DHT22;37713;53.254;6.460;2023-06-24T13:29:42;28.20;99.90
51637;DHT22;37713;53.254;6.460;2023-06-24T13:32:09;28.10;99.90
51637;DHT22;37713;53.254;6.460;2023-06-24T13:34:35;28.10;99.90
51637;DHT22;37713;53.254;6.460;2023-06-24T13:37:01;28.20;99.90
51637;DHT22;37713;53.254;6.460;2023-06-24T13:39:27;28.20;99.90
51637;DHT22;37713;53.254;6.460;2023-06-24T13:41:53;28.30;99.90
51637;DHT22;37713;53.254;6.460;2023-06-24T13:44:19;28.40;99.90
51637;DHT22;37713;53.254;6.460;2023-06-24T13:46:45;28.40;99.90
51637;DHT22;37713;53.254;6.460;2023-06-24T13:49:11;28.40;99.90
51637;DHT22;37713;53.254;6.460;2023-06-24T13:51:37;28.60;99.70
51637;DHT22;37713;53.254;6.460;2023-06-24T13:54:03;28.70;99.50
51637;DHT22;37713;53.254;6.460;2023-06-24T13:56:29;29.00;99.90
51637;DHT22;37713;53.254;6.460;2023-06-24T13:58:55;29.10;99.50
51637;DHT22;37713;53.254;6.460;2023-06-24T14:01:22;29.30;99.00
51637;DHT22;37713;53.254;6.460;2023-06-24T14:03:49;29.30;98.30
51637;DHT22;37713;53.254;6.460;2023-06-24T14:06:17;29.20;98.10
51637;DHT22;37713;53.254;6.460;2023-06-24T14:08:43;29.10;98.40
51637;DHT22;37713;53.254;6.460;2023-06-24T14:11:09;28.90;98.90
51637;DHT22;37713;53.254;6.460;2023-06-24T14:13:35;28.80;99.50
51637;DHT22;37713;53.254;6.460;2023-06-24T14:16:02;28.80;99.90
51637;DHT22;37713;53.254;6.460;2023-06-24T14:18:28;28.90;99.90
51637;DHT22;37713;53.254;6.460;2023-06-24T14:21:01;28.90;99.90
51637;DHT22;37713;53.254;6.460;2023-06-24T14:23:28;28.90;99.90
51637;DHT22;37713;53.254;6.460;2023-06-24T14:25:54;28.90;99.90
51637;DHT22;37713;53.254;6.460;2023-06-24T14:28:20;28.70;99.90
51637;DHT22;37713;53.254;6.460;2023-06-24T14:30:46;28.60;99.90
51637;DHT22;37713;53.254;6.460;2023-06-24T14:33:12;28.60;99.90
51637;DHT22;37713;53.254;6.460;2023-06-24T14:35:38;28.50;99.90
51637;DHT22;37713;53.254;6.460;2023-06-24T14:38:05;28.40;99.90
51637;DHT22;37713;53.254;6.460;2023-06-24T14:40:31;28.40;99.90
51637;DHT22;37713;53.254;6.460;2023-06-24T14:42:57;28.40;99.90
51637;DHT22;37713;53.254;6.460;2023-06-24T14:45:23;28.40;99.90
51637;DHT22;37713;53.254;6.460;2023-06-24T14:47:49;28.20;99.70
51637;DHT22;37713;53.254;6.460;2023-06-24T14:50:15;28.30;99.90
51637;DHT22;37713;53.254;6.460;2023-06-24T14:52:42;28.30;99.90
51637;DHT22;37713;53.254;6.460;2023-06-24T14:55:08;28.30;99.60
51637;DHT22;37713;53.254;6.460;2023-06-24T14:57:35;28.20;99.30
51637;DHT22;37713;53.254;6.460;2023-06-24T15:00:02;28.30;99.90
51637;DHT22;37713;53.254;6.460;2023-06-24T15:02:27;28.10;99.60
51637;DHT22;37713;53.254;6.460;2023-06-24T15:04:53;28.20;99.40
51637;DHT22;37713;53.254;6.460;2023-06-24T15:07:19;28.10;99.70
51637;DHT22;37713;53.254;6.460;2023-06-24T15:09:45;28.00;99.60
51637;DHT22;37713;53.254;6.460;2023-06-24T15:12:10;28.00;99.90
51637;DHT22;37713;53.254;6.460;2023-06-24T15:14:36;28.10;99.90
51637;DHT22;37713;53.254;6.460;2023-06-24T15:17:03;28.00;99.90
51637;DHT22;37713;53.254;6.460;2023-06-24T15:19:29;28.00;99.90
51637;DHT22;37713;53.254;6.460;2023-06-24T15:21:55;27.80;99.90
51637;DHT22;37713;53.254;6.460;2023-06-24T15:24:21;27.80;99.90
51637;DHT22;37713;53.254;6.460;2023-06-24T15:26:47;27.60;99.90
51637;DHT22;37713;53.254;6.460;2023-06-24T15:29:13;27.60;99.90
51637;DHT22;37713;53.254;6.460;2023-06-24T15:31:38;27.40;99.90
51637;DHT22;37713;53.254;6.460;2023-06-24T15:34:05;27.40;99.90
51637;DHT22;37713;53.254;6.460;2023-06-24T15:36:31;27.30;99.90
51637;DHT22;37713;53.254;6.460;2023-06-24T15:38:57;27.30;99.90
51637;DHT22;37713;53.254;6.460;2023-06-24T15:41:23;27.30;99.90
51637;DHT22;37713;53.254;6.460;2023-06-24T15:43:49;27.30;99.90
51637;DHT22;37713;53.254;6.460;2023-06-24T15:46:15;27.30;99.90
51637;DHT22;37713;53.254;6.460;2023-06-24T15:48:41;27.30;99.90
51637;DHT22;37713;53.254;6.460;2023-06-24T15:51:07;27.20;99.90